createdAt,value
2019-04-22T00:00:45.031Z,27.23
2019-04-22T00:01:55.209Z,27.87
2019-04-22T00:02:59.809Z,27.43
2019-04-22T00:04:08.128Z,27.80
2019-04-22T00:05:20.237Z,27.80
2019-04-22T00:06:42.693Z,28.73
2019-04-22T00:07:42.029Z,27.30
2019-04-22T00:08:50.592Z,26.97
2019-04-22T00:09:59.464Z,27.87
2019-04-22T00:11:07.312Z,25.73
2019-04-22T00:12:13.778Z,27.10
2019-04-22T00:13:22.190Z,27.70
2019-04-22T00:14:11.693Z,27.60
2019-04-22T00:15:19.491Z,27.90
2019-04-22T00:16:41.687Z,25.93
2019-04-22T00:19:01.411Z,25.30
2019-04-22T00:19:52.098Z,25.27
2019-04-22T00:20:58.115Z,25.37
2019-04-22T00:22:07.714Z,25.03
2019-04-22T00:23:10.110Z,25.17
2019-04-22T00:24:14.027Z,24.97
2019-04-22T00:25:22.466Z,26.20
2019-04-22T00:26:30.940Z,26.07
2019-04-22T00:27:37.228Z,25.63
2019-04-22T00:28:36.646Z,25.37
2019-04-22T00:30:00.635Z,24.77
2019-04-22T00:30:48.443Z,24.03
2019-04-22T00:32:01.913Z,26.23
2019-04-22T00:33:08.005Z,24.00
2019-04-22T00:34:16.671Z,23.23
2019-04-22T00:35:26.855Z,24.00
2019-04-22T00:36:29.239Z,24.07
2019-04-22T00:38:00.638Z,23.73
2019-04-22T00:38:44.355Z,25.43
2019-04-22T00:39:51.298Z,23.20
2019-04-22T00:41:00.532Z,24.83
2019-04-22T00:42:03.291Z,22.97
2019-04-22T00:43:07.039Z,21.63
2019-04-22T00:44:19.082Z,22.07
2019-04-22T00:45:19.426Z,22.50
2019-04-22T00:46:26.854Z,22.40
2019-04-22T00:47:32.358Z,22.23
2019-04-22T00:49:20.349Z,22.80
2019-04-22T00:52:05.167Z,21.37
2019-04-22T00:53:09.054Z,21.73
2019-04-22T00:54:15.274Z,21.67
2019-04-22T00:55:23.078Z,21.70
2019-04-22T00:56:23.185Z,21.73
2019-04-22T00:57:30.827Z,22.27
2019-04-22T00:58:37.880Z,21.93
2019-04-22T00:59:49.637Z,20.87
2019-04-22T01:00:48.626Z,21.23
2019-04-22T01:01:57.544Z,19.53
2019-04-22T01:03:02.231Z,19.60
2019-04-22T01:04:14.332Z,19.77
2019-04-22T01:05:19.241Z,20.10
2019-04-22T01:07:23.863Z,21.03
2019-04-22T01:08:36.763Z,19.10
2019-04-22T01:09:43.253Z,19.10
2019-04-22T01:10:48.885Z,18.70
2019-04-22T01:11:44.610Z,19.93
2019-04-22T01:12:51.295Z,20.17
2019-04-22T01:13:55.504Z,17.90
2019-04-22T01:15:07.040Z,19.20
2019-04-22T01:16:15.329Z,19.13
2019-04-22T01:17:12.143Z,20.00
2019-04-22T01:18:21.105Z,17.80
2019-04-22T01:19:32.067Z,18.43
2019-04-22T01:21:42.146Z,18.00
2019-04-22T01:22:46.680Z,20.77
2019-04-22T01:23:47.995Z,17.93
2019-04-22T01:24:57.569Z,19.43
2019-04-22T01:25:56.791Z,18.47
2019-04-22T01:27:01.941Z,17.53
2019-04-22T01:28:10.221Z,18.37
2019-04-22T01:29:12.269Z,18.03
2019-04-22T01:30:16.499Z,18.13
2019-04-22T01:31:17.196Z,17.93
2019-04-22T01:32:22.900Z,18.27
2019-04-22T01:33:29.071Z,17.63
2019-04-22T01:34:40.391Z,16.83
2019-04-22T01:35:48.877Z,18.27
2019-04-22T01:36:57.802Z,16.57
2019-04-22T01:38:03.064Z,17.20
2019-04-22T01:39:15.377Z,17.17
2019-04-22T01:40:23.827Z,17.20
2019-04-22T01:41:32.432Z,17.67
2019-04-22T01:42:35.748Z,16.03
2019-04-22T01:43:45.153Z,15.97
2019-04-22T01:44:47.105Z,17.53
2019-04-22T01:45:54.383Z,16.37
2019-04-22T01:47:00.035Z,16.27
2019-04-22T01:48:03.922Z,15.63
2019-04-22T01:49:07.822Z,16.23
2019-04-22T01:50:16.732Z,16.70
2019-04-22T01:51:12.241Z,16.40
2019-04-22T01:52:20.434Z,15.97
2019-04-22T01:53:36.041Z,16.57
2019-04-22T01:54:41.095Z,15.50
2019-04-22T01:55:43.969Z,17.57
2019-04-22T01:57:53.536Z,16.23
2019-04-22T01:58:54.597Z,16.03
2019-04-22T02:00:00.998Z,14.43
2019-04-22T02:01:15.972Z,15.87
2019-04-22T02:02:27.235Z,14.70
2019-04-22T02:03:25.732Z,15.60
2019-04-22T02:04:38.189Z,13.27
2019-04-22T02:05:40.235Z,14.93
2019-04-22T02:06:42.154Z,14.70
2019-04-22T02:07:51.244Z,15.03
2019-04-22T02:09:00.528Z,14.87
2019-04-22T02:10:22.232Z,13.17
2019-04-22T02:11:07.920Z,14.53
2019-04-22T02:12:12.884Z,14.07
2019-04-22T02:13:23.840Z,14.07
2019-04-22T02:14:26.965Z,14.90
2019-04-22T02:15:32.906Z,12.37
2019-04-22T02:17:53.399Z,14.83
2019-04-22T02:18:52.447Z,13.23
2019-04-22T02:19:58.050Z,12.47
2019-04-22T02:21:03.141Z,12.37
2019-04-22T02:22:11.474Z,12.87
2019-04-22T02:23:45.720Z,13.67
2019-04-22T02:24:33.392Z,11.97
2019-04-22T02:25:41.402Z,12.53
2019-04-22T02:26:42.044Z,12.00
2019-04-22T02:27:45.588Z,12.40
2019-04-22T02:29:06.579Z,12.20
2019-04-22T02:29:57.873Z,11.33
2019-04-22T02:32:19.579Z,12.17
2019-04-22T02:35:52.168Z,12.73
2019-04-22T02:36:34.102Z,11.97
2019-04-22T02:37:46.001Z,12.37
2019-04-22T02:39:57.902Z,10.60
2019-04-22T02:42:13.303Z,11.73
2019-04-22T02:43:26.107Z,11.40
2019-04-22T02:44:16.751Z,11.50
2019-04-22T02:45:25.943Z,11.27
2019-04-22T02:47:36.238Z,11.47
2019-04-22T02:49:45.442Z,11.23
2019-04-22T02:51:02.476Z,10.60
2019-04-22T02:52:06.391Z,11.17
2019-04-22T02:53:13.826Z,11.57
2019-04-22T02:55:30.322Z,11.20
2019-04-22T02:56:32.412Z,10.57
2019-04-22T02:57:35.531Z,10.47
2019-04-22T02:58:56.540Z,10.30
2019-04-22T02:59:46.951Z,10.80
2019-04-22T03:04:29.989Z,10.60
2019-04-22T03:05:17.895Z,9.87
2019-04-22T03:07:29.374Z,11.30
2019-04-22T03:08:36.758Z,10.97
2019-04-22T03:09:41.034Z,10.23
2019-04-22T03:10:56.996Z,10.43
2019-04-22T03:11:58.547Z,10.30
2019-04-22T03:12:52.424Z,9.80
2019-04-22T03:14:00.724Z,9.93
2019-04-22T03:15:06.267Z,9.93
2019-04-22T03:16:17.734Z,9.90
2019-04-22T03:17:18.008Z,10.30
2019-04-22T03:18:33.033Z,9.97
2019-04-22T03:19:47.015Z,9.70
2019-04-22T03:20:37.787Z,9.47
2019-04-22T03:21:38.822Z,10.33
2019-04-22T03:22:47.385Z,9.23
2019-04-22T03:24:09.007Z,9.93
2019-04-22T03:28:19.816Z,9.63
2019-04-22T03:30:33.746Z,8.93
2019-04-22T03:32:12.835Z,9.07
2019-04-22T03:36:49.072Z,10.03
2019-04-22T03:37:47.978Z,9.00
2019-04-22T03:38:41.624Z,9.67
2019-04-22T03:39:44.789Z,9.20
2019-04-22T03:41:57.269Z,8.53
2019-04-22T03:44:10.223Z,10.00
2019-04-22T03:45:10.265Z,9.90
2019-04-22T03:46:06.275Z,9.60
2019-04-22T03:47:19.426Z,9.83
2019-04-22T03:48:17.635Z,9.30
2019-04-22T03:49:49.989Z,9.20
2019-04-22T03:50:38.989Z,8.77
2019-04-22T03:52:37.849Z,8.87
2019-04-22T03:53:49.990Z,8.97
2019-04-22T03:55:07.735Z,9.20
2019-04-22T03:56:04.373Z,10.43
2019-04-22T03:57:33.162Z,9.40
2019-04-22T03:58:32.386Z,8.70
2019-04-22T03:59:29.447Z,9.23
2019-04-22T04:01:46.447Z,9.33
2019-04-22T04:03:51.025Z,9.20
2019-04-22T04:04:45.189Z,9.37
2019-04-22T04:06:06.726Z,9.70
2019-04-22T04:07:15.152Z,10.17
2019-04-22T04:09:18.417Z,9.77
2019-04-22T04:10:30.108Z,8.93
2019-04-22T04:11:38.972Z,9.37
2019-04-22T04:12:28.410Z,8.87
2019-04-22T04:13:34.065Z,9.60
2019-04-22T04:14:46.302Z,9.53
2019-04-22T04:15:38.570Z,9.10
2019-04-22T04:17:54.952Z,9.90
2019-04-22T04:21:27.105Z,9.67
2019-04-22T04:22:50.684Z,9.80
2019-04-22T04:23:38.362Z,9.00
2019-04-22T04:25:48.346Z,9.63
2019-04-22T04:26:59.187Z,9.30
2019-04-22T04:29:18.933Z,9.63
2019-04-22T04:30:14.029Z,10.43
2019-04-22T04:31:19.534Z,10.10
2019-04-22T04:33:28.925Z,9.50
2019-04-22T04:34:55.351Z,10.10
2019-04-22T04:35:40.890Z,10.47
2019-04-22T04:36:41.877Z,10.03
2019-04-22T04:38:52.421Z,10.07
2019-04-22T04:41:06.242Z,9.37
2019-04-22T04:42:25.188Z,10.07
2019-04-22T04:43:18.857Z,9.90
2019-04-22T04:44:35.339Z,9.37
2019-04-22T04:45:51.240Z,9.67
2019-04-22T04:47:49.206Z,9.73
2019-04-22T04:48:53.742Z,10.13
2019-04-22T04:51:07.784Z,9.70
2019-04-22T04:52:06.471Z,9.47
2019-04-22T04:53:19.379Z,10.00
2019-04-22T04:56:40.632Z,9.93
2019-04-22T04:57:51.935Z,9.33
2019-04-22T05:00:11.397Z,9.00
2019-04-22T05:00:58.145Z,8.87
2019-04-22T05:06:21.649Z,9.33
2019-04-22T05:08:58.951Z,9.53
2019-04-22T05:12:56.888Z,9.87
2019-04-22T05:15:11.284Z,9.23
2019-04-22T05:16:24.431Z,9.20
2019-04-22T05:17:18.573Z,9.37
2019-04-22T05:19:44.520Z,9.20
2019-04-22T05:20:53.216Z,9.07
2019-04-22T05:21:40.572Z,8.47
2019-04-22T05:22:49.145Z,9.30
2019-04-22T05:23:55.960Z,8.40
2019-04-22T05:24:58.190Z,8.97
2019-04-22T05:26:04.315Z,9.17
2019-04-22T05:27:19.984Z,9.20
2019-04-22T05:28:20.428Z,9.33
2019-04-22T05:30:26.588Z,8.97
2019-04-22T05:32:41.668Z,8.77
2019-04-22T05:33:42.215Z,8.53
2019-04-22T05:34:48.716Z,8.57
2019-04-22T05:35:53.765Z,8.40
2019-04-22T05:37:01.163Z,8.87
2019-04-22T05:38:15.065Z,8.43
2019-04-22T05:39:12.551Z,9.27
2019-04-22T05:41:23.328Z,7.97
2019-04-22T05:42:23.134Z,8.30
2019-04-22T05:43:38.646Z,8.87
2019-04-22T05:44:48.057Z,8.30
2019-04-22T05:45:44.092Z,9.23
2019-04-22T05:46:56.279Z,8.97
2019-04-22T05:47:57.667Z,9.00
2019-04-22T05:49:09.840Z,8.20
2019-04-22T05:50:10.945Z,8.93
2019-04-22T05:51:23.324Z,8.73
2019-04-22T05:52:23.579Z,8.50
2019-04-22T05:53:25.758Z,8.93
2019-04-22T05:54:34.695Z,8.53
2019-04-22T05:55:43.875Z,8.37
2019-04-22T05:56:41.361Z,8.38
2019-04-22T05:57:51.068Z,8.38
2019-04-22T05:59:00.718Z,8.15
2019-04-22T06:00:06.479Z,7.42
2019-04-22T06:02:23.828Z,8.40
2019-04-22T06:03:23.526Z,7.72
2019-04-22T06:04:32.403Z,7.40
2019-04-22T06:05:35.803Z,8.10
2019-04-22T06:06:35.313Z,8.25
2019-04-22T06:07:47.217Z,7.78
2019-04-22T06:08:50.737Z,7.60
2019-04-22T06:10:08.239Z,8.18
2019-04-22T06:11:10.193Z,7.95
2019-04-22T06:12:04.918Z,7.87
2019-04-22T06:13:11.204Z,7.65
2019-04-22T06:14:20.046Z,8.48
2019-04-22T06:15:23.408Z,7.65
2019-04-22T06:16:37.997Z,8.00
2019-04-22T06:18:51.803Z,8.43
2019-04-22T06:19:50.511Z,7.95
2019-04-22T06:21:03.969Z,8.40
2019-04-22T06:22:06.910Z,7.72
2019-04-22T06:23:15.282Z,8.55
2019-04-22T06:25:32.008Z,7.87
2019-04-22T06:26:37.768Z,7.92
2019-04-22T06:27:37.083Z,8.00
2019-04-22T06:28:46.701Z,8.10
2019-04-22T06:29:41.379Z,7.35
2019-04-22T06:30:57.441Z,7.92
2019-04-22T06:32:17.884Z,8.35
2019-04-22T06:33:13.295Z,7.87
2019-04-22T06:35:24.614Z,7.35
2019-04-22T06:36:26.989Z,8.50
2019-04-22T06:37:42.021Z,7.58
2019-04-22T06:39:39.572Z,8.35
2019-04-22T06:40:46.493Z,7.97
2019-04-22T06:41:53.478Z,7.78
2019-04-22T06:44:04.850Z,8.33
2019-04-22T06:45:10.773Z,7.55
2019-04-22T06:46:17.295Z,7.25
2019-04-22T06:47:27.137Z,8.15
2019-04-22T06:48:30.099Z,7.08
2019-04-22T06:49:35.894Z,8.00
2019-04-22T06:51:45.099Z,7.90
2019-04-22T06:52:54.593Z,7.12
2019-04-22T06:53:53.701Z,7.05
2019-04-22T06:55:09.688Z,7.83
2019-04-22T06:56:04.800Z,7.87
2019-04-22T06:57:15.016Z,7.37
2019-04-22T06:58:15.312Z,7.25
2019-04-22T06:59:30.153Z,7.25
2019-04-22T07:00:30.802Z,7.10
2019-04-22T07:01:45.822Z,7.95
2019-04-22T07:02:57.788Z,8.23
2019-04-22T07:04:58.271Z,7.80
2019-04-22T07:07:06.684Z,7.45
2019-04-22T07:08:35.487Z,7.58
2019-04-22T07:11:29.667Z,7.33
2019-04-22T07:12:34.762Z,8.23
2019-04-22T07:13:43.872Z,7.47
2019-04-22T07:14:50.453Z,7.90
2019-04-22T07:15:59.589Z,7.75
2019-04-22T07:16:56.155Z,7.85
2019-04-22T07:18:11.484Z,7.58
2019-04-22T07:19:13.840Z,7.60
2019-04-22T07:20:22.074Z,7.47
2019-04-22T07:21:26.057Z,7.55
2019-04-22T07:22:27.879Z,7.70
2019-04-22T07:25:49.286Z,7.70
2019-04-22T07:26:51.173Z,7.85
2019-04-22T07:27:58.223Z,7.10
2019-04-22T07:29:21.722Z,7.33
2019-04-22T07:30:15.191Z,7.75
2019-04-22T07:31:18.995Z,7.87
2019-04-22T07:32:40.045Z,7.87
2019-04-22T07:33:34.262Z,8.15
2019-04-22T07:34:33.105Z,8.03
2019-04-22T07:35:51.973Z,6.85
2019-04-22T07:37:12.634Z,7.70
2019-04-22T07:37:48.328Z,7.20
2019-04-22T07:38:56.442Z,7.08
2019-04-22T07:40:01.850Z,7.35
2019-04-22T07:41:05.537Z,7.15
2019-04-22T07:42:19.263Z,6.62
2019-04-22T07:43:27.970Z,6.42
2019-04-22T07:44:31.272Z,6.90
2019-04-22T07:45:40.794Z,6.75
2019-04-22T07:46:43.125Z,6.70
2019-04-22T07:47:47.855Z,7.70
2019-04-22T07:48:51.907Z,7.53
2019-04-22T07:50:03.272Z,6.87
2019-04-22T07:52:09.743Z,7.10
2019-04-22T07:53:11.766Z,7.37
2019-04-22T07:54:23.208Z,7.47
2019-04-22T07:55:29.471Z,6.85
2019-04-22T07:56:33.127Z,6.97
2019-04-22T07:57:36.538Z,7.58
2019-04-22T07:58:45.768Z,7.03
2019-04-22T07:59:49.340Z,7.10
2019-04-22T08:01:03.806Z,6.62
2019-04-22T08:02:02.400Z,7.00
2019-04-22T08:03:11.803Z,7.28
2019-04-22T08:04:22.921Z,6.85
2019-04-22T08:05:22.334Z,7.37
2019-04-22T08:08:38.841Z,7.10
2019-04-22T08:09:53.973Z,6.70
2019-04-22T08:10:50.007Z,7.00
2019-04-22T08:11:52.750Z,6.37
2019-04-22T08:12:58.112Z,6.55
2019-04-22T08:14:07.215Z,6.62
2019-04-22T08:15:16.685Z,6.87
2019-04-22T08:16:17.179Z,7.10
2019-04-22T08:18:37.441Z,7.20
2019-04-22T08:19:56.257Z,6.67
2019-04-22T08:20:44.090Z,6.47
2019-04-22T08:21:50.638Z,7.30
2019-04-22T08:23:01.212Z,7.03
2019-04-22T08:24:01.262Z,6.45
2019-04-22T08:25:08.208Z,7.08
2019-04-22T08:26:16.797Z,7.72
2019-04-22T08:27:15.265Z,7.75
2019-04-22T08:28:31.970Z,7.28
2019-04-22T08:29:38.875Z,7.47
2019-04-22T08:30:40.882Z,7.78
2019-04-22T08:31:48.621Z,7.55
2019-04-22T08:32:52.930Z,7.83
2019-04-22T08:34:01.962Z,7.67
2019-04-22T08:35:04.607Z,8.28
2019-04-22T08:38:34.237Z,8.15
2019-04-22T08:39:25.216Z,8.75
2019-04-22T08:40:36.421Z,8.78
2019-04-22T08:41:39.205Z,9.38
2019-04-22T08:46:05.434Z,8.40
2019-04-22T08:47:21.229Z,7.10
2019-04-22T08:48:15.121Z,7.22
2019-04-22T08:49:18.059Z,7.85
2019-04-22T08:50:26.760Z,8.45
2019-04-22T08:51:29.542Z,8.10
2019-04-22T08:52:58.729Z,7.90
2019-04-22T08:53:49.959Z,8.65
2019-04-22T08:54:50.831Z,7.67
2019-04-22T08:56:07.730Z,8.45
2019-04-22T08:57:06.425Z,7.35
2019-04-22T08:59:12.100Z,7.45
2019-04-22T09:00:20.289Z,7.35
2019-04-22T09:02:34.555Z,6.97
2019-04-22T09:03:37.586Z,6.47
2019-04-22T09:04:45.340Z,7.00
2019-04-22T09:05:58.278Z,6.85
2019-04-22T09:07:07.529Z,7.20
2019-04-22T09:08:09.328Z,7.40
2019-04-22T09:09:07.631Z,7.00
2019-04-22T09:10:15.144Z,9.00
2019-04-22T09:11:20.148Z,7.65
2019-04-22T09:12:37.069Z,8.18
2019-04-22T09:13:30.206Z,6.97
2019-04-22T09:14:38.163Z,6.70
2019-04-22T09:15:42.202Z,6.22
2019-04-22T09:17:05.739Z,6.00
2019-04-22T09:17:55.860Z,5.62
2019-04-22T09:18:59.774Z,6.65
2019-04-22T09:20:10.914Z,5.90
2019-04-22T09:21:19.804Z,6.53
2019-04-22T09:22:16.864Z,5.12
2019-04-22T09:24:29.907Z,6.00
2019-04-22T09:25:36.020Z,5.60
2019-04-22T09:26:43.601Z,5.55
2019-04-22T09:29:58.572Z,5.60
2019-04-22T09:31:06.065Z,5.35
2019-04-22T09:32:11.635Z,6.62
2019-04-22T09:33:26.285Z,5.62
2019-04-22T09:34:23.054Z,5.15
2019-04-22T09:35:34.366Z,5.72
2019-04-22T09:36:37.136Z,6.00
2019-04-22T09:40:02.718Z,6.67
2019-04-22T09:41:00.924Z,6.53
2019-04-22T09:42:07.925Z,8.08
2019-04-22T09:43:11.430Z,6.75
2019-04-22T09:44:14.835Z,10.38
2019-04-22T09:45:21.752Z,8.48
2019-04-22T09:46:28.327Z,10.68
2019-04-22T09:47:43.572Z,12.15
2019-04-22T09:48:44.128Z,7.05
2019-04-22T09:49:51.866Z,6.50
2019-04-22T09:50:51.998Z,10.65
2019-04-22T09:52:00.088Z,5.92
2019-04-22T09:53:08.450Z,6.58
2019-04-22T09:54:16.704Z,6.17
2019-04-22T09:55:17.986Z,12.93
2019-04-22T09:56:27.368Z,8.23
2019-04-22T09:57:24.521Z,6.05
2019-04-22T09:58:39.476Z,19.17
2019-04-22T09:59:48.552Z,7.33
2019-04-22T10:01:21.124Z,6.80
2019-04-22T10:02:26.752Z,6.45
2019-04-22T10:03:19.914Z,34.85
2019-04-22T10:04:27.644Z,7.53
2019-04-22T10:05:35.741Z,9.68
2019-04-22T10:06:39.565Z,8.18
2019-04-22T10:07:44.905Z,8.75
2019-04-22T10:09:02.223Z,23.18
2019-04-22T10:11:06.090Z,10.28
2019-04-22T10:12:15.400Z,8.95
2019-04-22T10:13:19.122Z,5.65
2019-04-22T10:14:19.310Z,6.75
2019-04-22T10:15:24.880Z,5.42
2019-04-22T10:17:36.659Z,11.33
2019-04-22T10:18:49.095Z,5.15
2019-04-22T10:19:46.859Z,8.95
2019-04-22T10:21:00.733Z,5.37
2019-04-22T10:22:19.997Z,11.10
2019-04-22T10:23:25.103Z,12.78
2019-04-22T10:24:13.947Z,7.25
2019-04-22T10:25:21.434Z,12.03
2019-04-22T10:26:27.978Z,18.35
2019-04-22T10:27:35.950Z,9.93
2019-04-22T10:28:40.109Z,5.95
2019-04-22T10:29:51.457Z,7.95
2019-04-22T10:31:00.495Z,6.92
2019-04-22T10:31:54.359Z,7.42
2019-04-22T10:33:03.305Z,15.40
2019-04-22T10:33:58.484Z,7.40
2019-04-22T10:35:15.589Z,9.78
2019-04-22T10:36:15.351Z,13.70
2019-04-22T10:37:23.433Z,6.42
2019-04-22T10:38:26.488Z,8.25
2019-04-22T10:39:39.657Z,6.45
2019-04-22T10:40:40.637Z,5.70
2019-04-22T10:41:46.072Z,7.50
2019-04-22T10:42:51.509Z,6.10
2019-04-22T10:43:57.047Z,8.18
2019-04-22T10:45:01.327Z,8.30
2019-04-22T10:46:06.283Z,7.25
2019-04-22T10:47:11.777Z,12.65
2019-04-22T10:48:16.501Z,6.12
2019-04-22T10:49:22.295Z,7.20
2019-04-22T10:50:39.306Z,5.50
2019-04-22T10:51:44.498Z,6.17
2019-04-22T10:52:49.706Z,5.95
2019-04-22T10:53:53.960Z,6.47
2019-04-22T10:54:59.098Z,5.92
2019-04-22T10:56:03.487Z,6.25
2019-04-22T10:57:08.641Z,7.83
2019-04-22T10:58:13.187Z,5.95
2019-04-22T10:59:18.594Z,5.03
2019-04-22T11:00:23.745Z,7.00
2019-04-22T11:01:28.008Z,5.87
2019-04-22T11:02:32.239Z,5.55
2019-04-22T11:03:37.294Z,5.87
2019-04-22T11:04:41.619Z,5.58
2019-04-22T11:05:48.289Z,5.45
2019-04-22T11:06:57.685Z,6.30
2019-04-22T11:08:03.134Z,7.37
2019-04-22T11:09:07.071Z,5.83
2019-04-22T11:10:32.006Z,5.70
2019-04-22T11:11:31.528Z,5.45
2019-04-22T11:12:26.947Z,5.03
2019-04-22T11:13:29.717Z,6.37
2019-04-22T11:14:34.808Z,5.97
2019-04-22T11:15:40.540Z,6.65
2019-04-22T11:16:45.585Z,5.85
2019-04-22T11:17:51.346Z,6.62
2019-04-22T11:18:55.878Z,5.40
2019-04-22T11:20:01.814Z,7.42
2019-04-22T11:21:07.454Z,7.33
2019-04-22T11:22:18.800Z,6.60
2019-04-22T11:23:18.651Z,5.65
2019-04-22T11:24:23.124Z,5.05
2019-04-22T11:25:27.739Z,5.70
2019-04-22T11:26:32.148Z,6.90
2019-04-22T11:27:37.138Z,5.72
2019-04-22T11:28:41.468Z,6.20
2019-04-22T11:29:45.785Z,5.65
2019-04-22T11:30:50.193Z,5.45
2019-04-22T11:31:54.733Z,6.25
2019-04-22T11:33:00.426Z,5.58
2019-04-22T11:34:06.145Z,5.65
2019-04-22T11:35:11.856Z,6.55
2019-04-22T11:36:17.424Z,6.60
2019-04-22T11:37:22.680Z,6.37
2019-04-22T11:38:28.731Z,5.78
2019-04-22T11:39:36.456Z,5.20
2019-04-22T11:40:43.601Z,6.08
2019-04-22T11:41:46.321Z,6.35
2019-04-22T11:42:52.143Z,6.60
2019-04-22T11:43:56.946Z,5.55
2019-04-22T11:45:01.426Z,5.22
2019-04-22T11:46:05.632Z,5.22
2019-04-22T11:47:11.483Z,6.97
2019-04-22T11:48:17.493Z,5.85
2019-04-22T11:49:22.071Z,5.72
2019-04-22T11:50:28.328Z,5.50
2019-04-22T11:51:33.806Z,5.80
2019-04-22T11:52:38.215Z,4.78
2019-04-22T11:53:42.858Z,7.50
2019-04-22T11:54:48.502Z,7.70
2019-04-22T11:55:53.201Z,5.62
2019-04-22T11:56:58.904Z,5.72
2019-04-22T11:58:03.225Z,5.37
2019-04-22T11:59:08.754Z,5.25
2019-04-22T12:00:14.698Z,5.30
2019-04-22T12:01:19.269Z,5.60
2019-04-22T12:02:27.180Z,5.42
2019-04-22T12:03:31.731Z,5.22
2019-04-22T12:04:37.992Z,5.00
2019-04-22T12:05:43.768Z,6.55
2019-04-22T12:06:49.617Z,6.12
2019-04-22T12:07:55.165Z,4.42
2019-04-22T12:08:59.662Z,5.70
2019-04-22T12:10:22.334Z,5.67
2019-04-22T12:11:11.588Z,5.30
2019-04-22T12:12:16.044Z,5.45
2019-04-22T12:13:21.805Z,5.50
2019-04-22T12:14:27.653Z,4.97
2019-04-22T12:15:32.967Z,5.92
2019-04-22T12:16:37.581Z,6.30
2019-04-22T12:17:42.654Z,6.22
2019-04-22T12:18:47.301Z,5.28
2019-04-22T12:19:52.646Z,6.08
2019-04-22T12:20:57.149Z,5.42
2019-04-22T12:22:02.815Z,5.75
2019-04-22T12:23:07.484Z,5.80
2019-04-22T12:24:13.216Z,5.33
2019-04-22T12:25:31.247Z,5.00
2019-04-22T12:26:25.492Z,4.60
2019-04-22T12:27:30.047Z,5.62
2019-04-22T12:28:35.139Z,3.58
2019-04-22T12:29:40.728Z,4.30
2019-04-22T12:30:45.745Z,3.98
2019-04-22T12:31:51.349Z,4.80
2019-04-22T12:32:55.717Z,4.33
2019-04-22T12:34:01.451Z,3.83
2019-04-22T12:35:07.372Z,3.80
2019-04-22T12:36:12.775Z,4.10
2019-04-22T12:37:25.803Z,3.22
2019-04-22T12:38:24.081Z,4.00
2019-04-22T12:39:29.573Z,4.58
2019-04-22T12:40:44.750Z,4.12
2019-04-22T12:41:40.178Z,2.95
2019-04-22T12:42:44.996Z,3.55
2019-04-22T12:43:49.401Z,4.20
2019-04-22T12:44:54.078Z,4.03
2019-04-22T12:45:58.453Z,3.92
2019-04-22T12:47:04.412Z,3.47
2019-04-22T12:48:10.155Z,4.03
2019-04-22T12:49:14.498Z,3.35
2019-04-22T12:50:24.062Z,3.92
2019-04-22T12:51:24.956Z,3.35
2019-04-22T12:52:36.929Z,3.60
2019-04-22T12:53:36.145Z,3.35
2019-04-22T12:54:40.490Z,3.75
2019-04-22T12:55:45.929Z,3.55
2019-04-22T12:56:51.392Z,3.72
2019-04-22T12:57:58.913Z,4.08
2019-04-22T12:59:01.811Z,3.80
2019-04-22T13:00:07.946Z,3.83
2019-04-22T13:01:12.817Z,3.22
2019-04-22T13:02:18.686Z,3.92
2019-04-22T13:03:24.332Z,3.60
2019-04-22T13:04:30.053Z,3.72
2019-04-22T13:05:35.262Z,3.50
2019-04-22T13:06:39.928Z,3.80
2019-04-22T13:07:44.270Z,3.77
2019-04-22T13:08:49.698Z,3.12
2019-04-22T13:09:55.145Z,3.15
2019-04-22T13:11:07.876Z,3.87
2019-04-22T13:12:06.777Z,3.55
2019-04-22T13:13:11.321Z,4.00
2019-04-22T13:14:16.810Z,3.83
2019-04-22T13:15:22.356Z,3.65
2019-04-22T13:16:27.070Z,3.80
2019-04-22T13:17:32.871Z,3.80
2019-04-22T13:18:44.359Z,3.05
2019-04-22T13:19:44.498Z,3.20
2019-04-22T13:20:48.807Z,3.10
2019-04-22T13:21:54.421Z,3.40
2019-04-22T13:22:58.942Z,3.30
2019-04-22T13:24:04.620Z,3.72
2019-04-22T13:25:12.442Z,3.30
2019-04-22T13:26:17.048Z,2.37
2019-04-22T13:27:21.324Z,2.95
2019-04-22T13:28:27.120Z,2.87
2019-04-22T13:29:32.929Z,2.75
2019-04-22T13:30:38.447Z,2.70
2019-04-22T13:31:42.959Z,3.12
2019-04-22T13:32:47.222Z,2.98
2019-04-22T13:33:55.201Z,3.02
2019-04-22T13:35:01.245Z,3.08
2019-04-22T13:36:03.763Z,3.35
2019-04-22T13:37:08.069Z,2.60
2019-04-22T13:38:12.954Z,3.00
2019-04-22T13:39:18.697Z,2.72
2019-04-22T13:40:23.390Z,2.67
2019-04-22T13:41:35.387Z,2.75
2019-04-22T13:42:33.925Z,2.90
2019-04-22T13:43:40.789Z,3.02
2019-04-22T13:44:46.155Z,3.33
2019-04-22T13:45:51.928Z,2.83
2019-04-22T13:47:12.288Z,2.55
2019-04-22T13:48:16.637Z,3.00
2019-04-22T13:49:42.773Z,2.05
2019-04-22T13:51:52.133Z,2.62
2019-04-22T13:53:22.096Z,2.80
2019-04-22T13:54:01.902Z,2.90
2019-04-22T13:54:30.118Z,3.30
2019-04-22T13:56:10.506Z,3.27
2019-04-22T13:57:09.024Z,2.50
2019-04-22T13:58:08.490Z,2.80
2019-04-22T13:59:10.255Z,3.08
2019-04-22T14:00:10.283Z,2.50
2019-04-22T14:01:18.753Z,2.40
2019-04-22T14:02:42.485Z,2.30
2019-04-22T14:03:58.611Z,2.40
2019-04-22T14:05:04.241Z,2.35
2019-04-22T14:06:09.092Z,2.08
2019-04-22T14:07:14.634Z,2.45
2019-04-22T14:08:19.922Z,2.22
2019-04-22T14:09:24.502Z,2.65
2019-04-22T14:10:30.101Z,2.58
2019-04-22T14:11:43.378Z,2.70
2019-04-22T14:12:40.364Z,2.40
2019-04-22T14:13:45.968Z,2.00
2019-04-22T14:14:52.119Z,2.25
2019-04-22T14:15:56.982Z,2.42
2019-04-22T14:17:02.822Z,2.12
2019-04-22T14:18:07.470Z,2.65
2019-04-22T14:19:11.991Z,2.20
2019-04-22T14:20:16.343Z,2.08
2019-04-22T14:21:21.039Z,2.30
2019-04-22T14:22:26.385Z,2.35
2019-04-22T14:23:30.935Z,2.02
2019-04-22T14:24:36.459Z,2.25
2019-04-22T14:25:41.108Z,1.95
2019-04-22T14:27:03.627Z,2.40
2019-04-22T14:27:58.356Z,2.27
2019-04-22T14:28:57.594Z,2.00
2019-04-22T14:30:02.073Z,2.25
2019-04-22T14:31:06.711Z,2.20
2019-04-22T14:32:16.743Z,2.30
2019-04-22T14:33:18.258Z,2.05
2019-04-22T14:34:24.138Z,1.90
2019-04-22T14:35:29.161Z,1.85
2019-04-22T14:36:35.138Z,1.65
2019-04-22T14:37:42.554Z,2.37
2019-04-22T14:38:48.026Z,2.08
2019-04-22T14:39:53.709Z,2.02
2019-04-22T14:40:58.593Z,2.00
2019-04-22T14:42:21.591Z,2.30
2019-04-22T14:43:28.991Z,2.30
2019-04-22T14:45:58.023Z,2.10
2019-04-22T14:46:56.714Z,2.00
2019-04-22T14:48:04.466Z,1.52
2019-04-22T14:49:06.149Z,1.70
2019-04-22T14:50:04.970Z,1.92
2019-04-22T14:51:07.168Z,1.70
2019-04-22T14:52:21.480Z,1.70
2019-04-22T14:53:21.752Z,1.67
2019-04-22T14:54:26.820Z,1.52
2019-04-22T14:55:21.462Z,1.67
2019-04-22T14:56:22.335Z,1.57
2019-04-22T14:57:28.524Z,1.87
2019-04-22T14:58:33.071Z,2.15
2019-04-22T14:59:37.739Z,2.10
2019-04-22T15:00:42.402Z,2.40
2019-04-22T15:01:47.586Z,1.80
2019-04-22T15:02:52.184Z,1.82
2019-04-22T15:03:56.589Z,1.90
2019-04-22T15:05:00.853Z,1.70
2019-04-22T15:06:06.370Z,1.27
2019-04-22T15:07:10.855Z,2.05
2019-04-22T15:08:15.136Z,2.50
2019-04-22T15:09:19.710Z,1.87
2019-04-22T15:10:24.360Z,1.60
2019-04-22T15:11:28.996Z,2.20
2019-04-22T15:12:42.072Z,1.70
2019-04-22T15:13:41.175Z,1.75
2019-04-22T15:14:45.785Z,1.67
2019-04-22T15:16:09.894Z,1.95
2019-04-22T15:17:27.122Z,1.67
2019-04-22T15:18:41.911Z,1.60
2019-04-22T15:19:59.760Z,1.70
2019-04-22T15:21:07.042Z,1.75
2019-04-22T15:22:12.680Z,1.90
2019-04-22T15:23:16.987Z,19.82
2019-04-22T15:24:28.141Z,1.82
2019-04-22T15:25:34.748Z,1.50
2019-04-22T15:26:40.126Z,1.55
2019-04-22T15:27:45.922Z,1.30
2019-04-22T15:28:51.426Z,1.85
2019-04-22T15:29:57.020Z,1.40
2019-04-22T15:31:01.591Z,1.60
2019-04-22T15:32:07.377Z,1.65
2019-04-22T15:33:11.796Z,1.75
2019-04-22T15:34:16.339Z,1.52
2019-04-22T15:35:20.744Z,2.02
2019-04-22T15:36:26.132Z,1.50
2019-04-22T15:37:31.124Z,1.40
2019-04-22T15:38:36.531Z,1.40
2019-04-22T15:39:41.507Z,1.65
2019-04-22T15:40:46.946Z,1.57
2019-04-22T15:42:03.067Z,2.33
2019-04-22T15:42:57.219Z,1.50
2019-04-22T15:44:01.884Z,1.57
2019-04-22T15:45:08.607Z,1.70
2019-04-22T15:46:12.151Z,1.72
2019-04-22T15:47:16.421Z,1.37
2019-04-22T15:48:21.179Z,1.80
2019-04-22T15:49:25.498Z,1.82
2019-04-22T15:50:30.868Z,1.50
2019-04-22T15:51:36.417Z,1.60
2019-04-22T15:52:49.117Z,1.80
2019-04-22T15:53:47.562Z,1.75
2019-04-22T15:54:53.871Z,1.85
2019-04-22T15:55:58.819Z,1.72
2019-04-22T15:57:04.524Z,1.60
2019-04-22T15:58:10.150Z,1.55
2019-04-22T15:59:34.867Z,1.50
2019-04-22T16:00:31.934Z,1.67
2019-04-22T16:01:31.593Z,1.90
2019-04-22T16:02:33.863Z,2.00
2019-04-22T16:03:38.625Z,2.52
2019-04-22T16:04:44.324Z,2.65
2019-04-22T16:05:50.107Z,2.50
2019-04-22T16:06:54.798Z,2.85
2019-04-22T16:07:59.232Z,2.60
2019-04-22T16:09:05.167Z,2.42
2019-04-22T16:10:12.152Z,3.10
2019-04-22T16:11:17.962Z,4.62